Time;durP1;ratioP1;P1;durP2;ratioP2;P2;SDS_P1;SDS_P2;PMS_P1;PMS_P2;Temp;Humidity;BMP_temperature;BMP_pressure;BME280_temperature;BME280_humidity;BME280_pressure;Samples;Min_cycle;Max_cycle;Signal;HPM_P1;HPM_P2
2023/05/19 00:02:04;;;;;;;6.53;2.20;;;11.90;77.50;;;;;;6173870;23;20045;-67
2023/05/19 00:04:30;;;;;;;4.80;1.60;;;11.90;77.40;;;;;;6205865;23;20150;-66
2023/05/19 00:06:59;;;;;;;7.18;1.90;;;11.90;77.50;;;;;;6203670;23;20013;-67
2023/05/19 00:09:24;;;;;;;5.32;2.13;;;11.90;77.60;;;;;;6188160;23;20005;-67
2023/05/19 00:11:50;;;;;;;3.30;2.03;;;11.80;77.50;;;;;;6206365;23;20453;-66
2023/05/19 00:14:16;;;;;;;5.97;2.40;;;11.80;77.70;;;;;;6204134;23;20053;-67
2023/05/19 00:16:42;;;;;;;3.50;2.00;;;11.80;77.90;;;;;;6208307;23;20013;-66
2023/05/19 00:19:09;;;;;;;4.68;1.73;;;11.80;77.90;;;;;;6206886;23;20394;-66
2023/05/19 00:21:36;;;;;;;6.22;1.83;;;11.80;77.80;;;;;;6206672;23;20265;-67
2023/05/19 00:24:02;;;;;;;4.40;2.20;;;11.80;77.90;;;;;;6180349;23;20009;-67
2023/05/19 00:26:28;;;;;;;7.20;2.40;;;11.70;77.70;;;;;;6206467;23;20005;-67
2023/05/19 00:28:54;;;;;;;4.90;2.58;;;11.80;77.70;;;;;;6206271;23;20040;-66
2023/05/19 00:31:20;;;;;;;3.83;2.00;;;11.70;77.70;;;;;;6207994;23;20009;-67
2023/05/19 00:33:45;;;;;;;7.00;2.70;;;11.70;77.70;;;;;;6208089;23;20012;-66
2023/05/19 00:36:11;;;;;;;5.10;1.70;;;11.70;77.70;;;;;;6205415;23;20065;-67
2023/05/19 00:38:37;;;;;;;3.85;2.00;;;11.70;77.70;;;;;;6206304;23;20013;-67
2023/05/19 00:41:04;;;;;;;3.85;1.95;;;11.60;77.60;;;;;;6205943;23;20138;-67
2023/05/19 00:43:30;;;;;;;3.25;1.70;;;11.60;77.80;;;;;;6207184;23;20025;-67
2023/05/19 00:45:56;;;;;;;5.35;2.38;;;11.60;77.90;;;;;;6206167;23;20012;-68
2023/05/19 00:48:23;;;;;;;4.60;2.00;;;11.60;77.80;;;;;;6205255;23;20005;-68
2023/05/19 00:50:50;;;;;;;7.50;1.70;;;11.60;78.00;;;;;;6175253;23;19989;-68
2023/05/19 00:53:18;;;;;;;5.53;2.20;;;11.60;78.00;;;;;;6181348;23;20032;-67
2023/05/19 00:55:45;;;;;;;3.25;2.08;;;11.50;78.10;;;;;;6206826;23;20025;-67
2023/05/19 00:58:12;;;;;;;3.67;1.80;;;11.50;78.20;;;;;;6207616;23;20068;-67
2023/05/19 01:00:38;;;;;;;4.80;2.00;;;11.50;78.20;;;;;;6207183;23;20031;-67
2023/05/19 01:03:09;;;;;;;4.80;2.40;;;11.50;78.30;;;;;;6182573;23;20032;-68
2023/05/19 01:05:43;;;;;;;4.95;1.77;;;11.50;78.20;;;;;;6206458;23;20056;-76
2023/05/19 01:08:09;;;;;;;3.40;1.98;;;11.50;78.10;;;;;;6207935;23;20045;-74
2023/05/19 01:10:35;;;;;;;4.63;1.77;;;11.50;78.10;;;;;;6208172;23;20004;-75
2023/05/19 01:13:05;;;;;;;3.72;1.95;;;11.50;78.00;;;;;;6207756;23;20021;-74
2023/05/19 01:15:42;;;;;;;5.88;2.40;;;11.50;78.20;;;;;;6206295;23;20036;-76
2023/05/19 01:18:12;;;;;;;5.05;2.08;;;11.40;78.30;;;;;;6199083;23;20001;-74
2023/05/19 01:20:45;;;;;;;4.90;1.67;;;11.40;78.50;;;;;;6186621;23;20001;-74
2023/05/19 01:23:20;;;;;;;5.15;2.05;;;11.40;78.40;;;;;;6205409;23;20044;-76
2023/05/19 01:26:19;;;;;;;3.92;1.95;;;11.40;78.70;;;;;;6206543;23;19989;-74
2023/05/19 01:29:25;;;;;;;3.03;1.77;;;11.40;78.80;;;;;;6208071;23;20001;-73
2023/05/19 01:31:54;;;;;;;4.10;2.42;;;11.30;78.80;;;;;;6190819;23;20036;-74
2023/05/19 01:34:22;;;;;;;4.32;1.95;;;11.40;78.60;;;;;;6182432;23;20024;-67
2023/05/19 01:36:49;;;;;;;3.13;1.60;;;11.30;78.70;;;;;;6182997;23;20015;-66
2023/05/19 01:39:15;;;;;;;3.25;2.03;;;11.30;78.80;;;;;;6157379;23;20005;-67
2023/05/19 01:41:41;;;;;;;3.35;1.92;;;11.30;78.80;;;;;;6195458;23;20013;-66
2023/05/19 01:44:07;;;;;;;5.68;1.80;;;11.30;78.90;;;;;;6194359;23;20025;-66
2023/05/19 01:46:34;;;;;;;3.67;2.05;;;11.30;78.90;;;;;;6197752;23;20005;-66
2023/05/19 01:49:00;;;;;;;7.35;2.08;;;11.30;78.80;;;;;;6170304;23;20009;-67
2023/05/19 01:51:26;;;;;;;4.20;1.95;;;11.30;79.00;;;;;;6200868;23;20012;-66
2023/05/19 01:53:52;;;;;;;4.72;2.55;;;11.30;79.10;;;;;;6198364;23;20009;-66
2023/05/19 01:56:42;;;;;;;6.20;2.03;;;11.30;79.00;;;;;;6202444;23;20029;-67
2023/05/19 01:59:54;;;;;;;4.38;2.00;;;11.30;79.00;;;;;;6175594;23;20009;-66
2023/05/19 02:02:53;;;;;;;4.75;2.20;;;11.30;78.90;;;;;;6197035;23;20012;-66
2023/05/19 02:05:30;;;;;;;5.93;1.80;;;11.30;79.00;;;;;;6198288;23;20032;-66
2023/05/19 02:08:12;;;;;;;4.65;2.15;;;11.30;78.90;;;;;;6192743;23;20407;-66
2023/05/19 02:10:42;;;;;;;4.38;1.95;;;11.20;79.00;;;;;;6181997;23;20009;-66
2023/05/19 02:13:10;;;;;;;4.07;1.90;;;11.20;79.00;;;;;;6181002;23;20338;-66
2023/05/19 02:15:41;;;;;;;5.07;1.88;;;11.20;79.10;;;;;;6179608;23;20017;-66
2023/05/19 02:18:10;;;;;;;3.05;1.95;;;11.10;79.10;;;;;;6181469;23;20059;-66
2023/05/19 02:20:37;;;;;;;6.57;2.22;;;11.10;79.30;;;;;;6182181;23;20040;-75
2023/05/19 02:23:04;;;;;;;5.80;2.17;;;11.10;79.30;;;;;;6159745;23;20397;-75
2023/05/19 02:25:29;;;;;;;3.65;1.60;;;11.10;79.40;;;;;;6185953;23;20068;-75
2023/05/19 02:27:58;;;;;;;5.13;1.90;;;11.10;79.30;;;;;;6184630;23;20009;-75
2023/05/19 02:30:23;;;;;;;5.47;2.05;;;11.10;79.50;;;;;;6183353;23;20012;-75
2023/05/19 02:32:49;;;;;;;3.97;2.00;;;11.10;79.50;;;;;;6182440;23;20009;-75
2023/05/19 02:35:15;;;;;;;4.50;1.73;;;11.10;79.60;;;;;;6182805;23;20442;-73
2023/05/19 02:37:40;;;;;;;4.78;2.30;;;11.10;79.70;;;;;;6182968;23;20485;-73
2023/05/19 02:40:07;;;;;;;6.05;2.13;;;11.00;79.50;;;;;;6196745;23;19993;-73
2023/05/19 02:42:32;;;;;;;3.50;1.63;;;11.00;79.60;;;;;;6164507;23;20035;-73
2023/05/19 02:44:59;;;;;;;3.10;1.58;;;11.00;79.60;;;;;;6184717;23;20116;-73
2023/05/19 02:47:25;;;;;;;6.10;2.25;;;11.00;79.70;;;;;;6188853;23;20031;-73
2023/05/19 02:49:50;;;;;;;4.15;2.10;;;11.00;79.60;;;;;;6192086;23;20013;-72
2023/05/19 02:52:16;;;;;;;4.03;2.13;;;11.00;79.60;;;;;;6182426;23;20024;-73
2023/05/19 02:54:42;;;;;;;4.28;2.35;;;11.00;79.70;;;;;;6182502;23;20334;-73
2023/05/19 02:57:07;;;;;;;4.63;1.85;;;11.10;79.80;;;;;;6184129;23;20342;-73
2023/05/19 02:59:33;;;;;;;4.20;1.73;;;11.10;79.80;;;;;;6184008;23;20009;-73
2023/05/19 03:02:00;;;;;;;3.90;1.88;;;11.00;79.80;;;;;;6181265;23;20498;-72
2023/05/19 03:04:26;;;;;;;2.70;1.67;;;11.00;79.80;;;;;;6157049;23;20446;-73
2023/05/19 03:06:53;;;;;;;3.92;1.90;;;11.10;80.00;;;;;;6156070;23;20060;-72
2023/05/19 03:09:18;;;;;;;3.58;1.67;;;11.10;79.90;;;;;;6182505;23;20001;-72
2023/05/19 03:11:44;;;;;;;4.10;1.48;;;11.10;79.90;;;;;;6181252;23;20001;-73
2023/05/19 03:14:12;;;;;;;5.55;2.05;;;11.10;79.90;;;;;;6183910;23;20009;-72
2023/05/19 03:16:39;;;;;;;5.50;1.92;;;11.10;80.00;;;;;;6182679;23;20379;-72
2023/05/19 03:19:05;;;;;;;4.20;1.90;;;11.00;79.90;;;;;;6182550;23;20013;-72
2023/05/19 03:21:31;;;;;;;4.47;1.88;;;11.00;80.00;;;;;;6181736;23;20005;-72
2023/05/19 03:23:56;;;;;;;4.63;1.70;;;11.00;80.00;;;;;;6182301;23;20017;-73
2023/05/19 03:26:23;;;;;;;4.65;2.20;;;11.00;80.00;;;;;;6182808;23;20331;-73
2023/05/19 03:28:48;;;;;;;5.10;1.77;;;11.10;80.20;;;;;;6156411;23;20381;-66
2023/05/19 03:31:15;;;;;;;4.57;2.00;;;11.00;80.20;;;;;;6182195;23;20012;-66
2023/05/19 03:33:40;;;;;;;4.43;2.13;;;11.00;80.20;;;;;;6181504;23;20013;-67
2023/05/19 03:36:06;;;;;;;4.45;1.98;;;11.10;80.30;;;;;;6180910;23;20011;-67
2023/05/19 03:38:32;;;;;;;4.28;1.80;;;11.00;80.30;;;;;;6155819;23;20071;-68
2023/05/19 03:40:57;;;;;;;5.88;2.00;;;11.10;80.40;;;;;;6181366;23;20455;-72
2023/05/19 03:43:23;;;;;;;3.50;1.90;;;11.10;80.40;;;;;;6182434;23;20029;-71
2023/05/19 03:45:50;;;;;;;4.50;1.92;;;11.10;80.40;;;;;;6183221;23;20032;-72
2023/05/19 03:48:15;;;;;;;3.72;2.38;;;11.10;80.40;;;;;;6182560;23;20451;-67
2023/05/19 03:50:43;;;;;;;3.78;1.92;;;11.20;80.50;;;;;;6181895;23;20012;-66
2023/05/19 03:53:08;;;;;;;5.60;2.22;;;11.20;80.50;;;;;;6180587;23;20009;-64
2023/05/19 03:55:36;;;;;;;3.67;1.77;;;11.20;80.60;;;;;;6181860;23;20012;-62
2023/05/19 03:58:02;;;;;;;4.68;1.98;;;11.30;80.70;;;;;;6182045;23;20084;-63
2023/05/19 04:00:27;;;;;;;5.00;2.35;;;11.30;80.70;;;;;;6180439;23;20005;-62
2023/05/19 04:02:53;;;;;;;3.65;1.80;;;11.30;81.20;;;;;;6181224;23;20024;-63
2023/05/19 04:05:19;;;;;;;3.42;1.98;;;11.30;80.70;;;;;;6180813;23;20076;-63
2023/05/19 04:07:45;;;;;;;2.95;1.70;;;11.40;80.70;;;;;;6154775;23;20012;-63
2023/05/19 04:10:11;;;;;;;5.53;1.77;;;11.40;80.80;;;;;;6180617;23;20017;-62
2023/05/19 04:12:37;;;;;;;6.82;2.25;;;11.50;80.90;;;;;;6180640;23;20734;-69
2023/05/19 04:15:04;;;;;;;6.43;2.22;;;11.50;81.00;;;;;;6182646;23;20009;-69
2023/05/19 04:17:30;;;;;;;5.60;1.80;;;11.60;81.00;;;;;;6182144;23;20104;-69
2023/05/19 04:19:56;;;;;;;7.65;2.10;;;11.70;81.00;;;;;;6153862;23;20040;-69
2023/05/19 04:22:21;;;;;;;7.22;2.55;;;11.70;80.90;;;;;;6181151;23;20505;-69
2023/05/19 04:24:47;;;;;;;5.63;2.50;;;11.80;81.00;;;;;;6156161;23;20066;-69
2023/05/19 04:27:14;;;;;;;7.00;2.72;;;11.80;81.00;;;;;;6181803;23;20031;-69
2023/05/19 04:29:40;;;;;;;6.45;2.10;;;11.80;81.00;;;;;;6154330;23;20008;-69
2023/05/19 04:32:07;;;;;;;3.35;1.90;;;11.90;81.00;;;;;;6181018;23;20009;-69
2023/05/19 04:34:39;;;;;;;4.88;2.08;;;12.00;81.00;;;;;;6180438;23;20012;-70
2023/05/19 04:37:06;;;;;;;7.05;1.95;;;12.00;81.00;;;;;;6180899;23;20005;-70
2023/05/19 04:39:31;;;;;;;3.80;2.00;;;12.00;80.90;;;;;;6180257;23;20032;-70
2023/05/19 04:41:57;;;;;;;4.50;1.80;;;12.10;80.90;;;;;;6180528;23;20437;-62
2023/05/19 04:44:22;;;;;;;5.68;2.47;;;12.10;80.90;;;;;;6180630;23;20017;-62
2023/05/19 04:46:48;;;;;;;4.97;2.75;;;12.10;81.30;;;;;;6181233;23;20422;-62
2023/05/19 04:49:14;;;;;;;3.15;1.83;;;12.10;80.90;;;;;;6180384;23;20084;-62
2023/05/19 04:51:41;;;;;;;4.47;2.60;;;12.20;81.00;;;;;;6181374;23;20453;-62
2023/05/19 04:54:07;;;;;;;4.22;2.00;;;12.20;81.10;;;;;;6180353;23;20005;-70
2023/05/19 04:56:32;;;;;;;3.88;2.00;;;12.30;81.10;;;;;;6179940;23;20092;-70
2023/05/19 04:58:58;;;;;;;5.50;3.15;;;12.30;81.10;;;;;;6181101;23;20032;-69
2023/05/19 05:01:24;;;;;;;2.65;1.70;;;12.30;81.10;;;;;;6180948;23;20008;-69
2023/05/19 05:03:53;;;;;;;3.90;1.90;;;12.30;81.10;;;;;;6179474;23;20090;-70
2023/05/19 05:06:22;;;;;;;4.35;2.50;;;12.30;81.10;;;;;;6154101;23;20004;-69
2023/05/19 05:08:48;;;;;;;5.63;2.60;;;12.40;81.10;;;;;;6181342;23;20009;-69
2023/05/19 05:11:14;;;;;;;3.70;2.10;;;12.40;81.10;;;;;;6182386;23;20015;-69
2023/05/19 05:13:40;;;;;;;7.63;2.42;;;12.40;81.10;;;;;;6180365;23;20076;-69
2023/05/19 05:16:07;;;;;;;11.85;2.65;;;12.40;81.10;;;;;;6181652;23;20017;-70
2023/05/19 05:18:33;;;;;;;3.80;2.03;;;12.50;81.30;;;;;;6152484;23;20011;-69
2023/05/19 05:21:00;;;;;;;5.70;2.05;;;12.50;81.20;;;;;;6155730;23;20009;-70
2023/05/19 05:23:26;;;;;;;4.43;2.15;;;12.50;81.30;;;;;;6180438;23;20025;-70
2023/05/19 05:25:52;;;;;;;4.47;2.13;;;12.50;81.40;;;;;;6181214;23;20009;-70
2023/05/19 05:28:18;;;;;;;3.42;1.85;;;12.60;81.50;;;;;;6182538;23;20009;-70
2023/05/19 05:30:44;;;;;;;3.45;2.22;;;12.60;81.50;;;;;;6180806;23;20019;-70
2023/05/19 05:33:10;;;;;;;5.93;2.38;;;12.70;81.50;;;;;;6153284;23;20443;-71
2023/05/19 05:35:36;;;;;;;4.72;2.78;;;12.70;81.60;;;;;;6181193;23;20005;-70
2023/05/19 05:38:02;;;;;;;4.03;1.75;;;12.80;81.50;;;;;;6181154;23;20083;-69
2023/05/19 05:40:28;;;;;;;5.00;2.00;;;12.80;81.50;;;;;;6179182;23;20016;-62
2023/05/19 05:42:54;;;;;;;6.60;2.25;;;12.90;81.50;;;;;;6179375;23;20045;-62
2023/05/19 05:45:22;;;;;;;6.05;2.10;;;12.90;81.40;;;;;;6180069;23;20326;-62
2023/05/19 05:47:47;;;;;;;5.40;2.63;;;13.00;81.50;;;;;;6180224;23;20009;-62
2023/05/19 05:50:13;;;;;;;5.45;2.30;;;13.00;81.40;;;;;;6153991;23;20009;-61
2023/05/19 05:52:41;;;;;;;3.60;2.22;;;13.10;81.30;;;;;;6179013;23;20012;-62
2023/05/19 05:55:07;;;;;;;5.78;2.53;;;13.20;81.40;;;;;;6179066;23;20005;-62
2023/05/19 05:57:34;;;;;;;4.47;2.03;;;13.20;81.20;;;;;;6181530;23;20009;-70
2023/05/19 06:00:00;;;;;;;4.22;2.03;;;13.40;81.20;;;;;;6154804;23;20009;-70
2023/05/19 06:02:27;;;;;;;4.50;2.25;;;13.50;81.10;;;;;;6155194;23;20396;-74
2023/05/19 06:04:53;;;;;;;3.90;2.30;;;13.60;81.00;;;;;;6182648;23;20435;-71
2023/05/19 06:07:18;;;;;;;3.35;1.77;;;13.60;81.00;;;;;;6183212;23;20325;-71
2023/05/19 06:09:44;;;;;;;4.35;2.42;;;13.70;80.80;;;;;;6182144;23;20013;-64
2023/05/19 06:12:10;;;;;;;4.78;2.67;;;13.80;80.80;;;;;;6183375;23;20017;-64
2023/05/19 06:14:35;;;;;;;7.72;2.10;;;13.90;81.00;;;;;;6182529;23;20388;-64
2023/05/19 06:17:01;;;;;;;5.18;2.72;;;14.00;81.10;;;;;;6181010;23;20012;-65
2023/05/19 06:19:27;;;;;;;4.05;2.28;;;14.20;80.80;;;;;;6182598;23;20001;-64
2023/05/19 06:21:52;;;;;;;3.90;1.88;;;14.20;80.30;;;;;;6183011;23;20044;-64
2023/05/19 06:24:18;;;;;;;3.70;2.00;;;14.20;80.00;;;;;;6155638;23;20195;-64
2023/05/19 06:26:44;;;;;;;6.00;2.30;;;14.30;80.50;;;;;;6183992;23;20005;-74
2023/05/19 06:29:10;;;;;;;5.93;2.35;;;14.30;79.70;;;;;;6182087;23;20001;-74
2023/05/19 06:31:35;;;;;;;3.38;2.17;;;14.40;80.00;;;;;;6182880;23;20001;-74
2023/05/19 06:34:01;;;;;;;4.55;2.50;;;14.40;79.70;;;;;;6182537;23;20012;-73
2023/05/19 06:36:26;;;;;;;5.32;2.80;;;14.40;79.70;;;;;;6181614;23;20312;-73
2023/05/19 06:38:52;;;;;;;5.72;2.30;;;14.50;79.80;;;;;;6181668;23;20059;-73
2023/05/19 06:41:18;;;;;;;4.65;2.30;;;14.50;79.80;;;;;;6155497;23;20009;-72
2023/05/19 06:43:43;;;;;;;5.50;2.50;;;14.50;79.60;;;;;;6181171;23;20346;-73
2023/05/19 06:46:10;;;;;;;7.32;3.70;;;14.50;79.30;;;;;;6182239;23;20009;-73
2023/05/19 06:48:36;;;;;;;6.65;2.92;;;14.60;79.40;;;;;;6181121;23;20316;-73
2023/05/19 06:51:02;;;;;;;5.18;2.53;;;14.70;79.40;;;;;;6181044;23;20001;-72
2023/05/19 06:53:27;;;;;;;6.88;2.60;;;14.70;79.30;;;;;;6183480;23;20008;-64
2023/05/19 06:55:53;;;;;;;5.15;2.80;;;14.70;79.20;;;;;;6180810;23;20033;-63
2023/05/19 06:58:19;;;;;;;6.85;2.60;;;14.80;79.20;;;;;;6180643;23;20016;-62
2023/05/19 07:00:44;;;;;;;7.65;2.40;;;14.80;79.20;;;;;;6177572;23;20004;-62
2023/05/19 07:03:10;;;;;;;6.10;2.50;;;14.90;79.20;;;;;;6179289;23;20021;-61
2023/05/19 07:05:36;;;;;;;6.03;2.75;;;14.90;79.00;;;;;;6181749;23;20485;-71
2023/05/19 07:08:01;;;;;;;6.05;2.53;;;15.00;79.10;;;;;;6181389;23;20020;-70
2023/05/19 07:10:27;;;;;;;4.32;2.13;;;15.10;79.10;;;;;;6180347;23;20116;-70
2023/05/19 07:12:53;;;;;;;4.20;1.98;;;15.10;78.90;;;;;;6181636;23;20039;-71
2023/05/19 07:15:18;;;;;;;4.05;2.15;;;15.20;78.80;;;;;;6154850;23;20058;-70
2023/05/19 07:17:44;;;;;;;10.23;2.33;;;15.30;78.70;;;;;;6180411;23;20419;-70
2023/05/19 07:20:10;;;;;;;3.38;2.17;;;15.40;78.40;;;;;;6181598;23;20036;-69
2023/05/19 07:22:38;;;;;;;4.28;2.10;;;15.50;78.30;;;;;;6181691;23;20025;-70
2023/05/19 07:25:05;;;;;;;4.40;2.38;;;15.60;78.10;;;;;;6154254;23;20012;-70
2023/05/19 07:27:30;;;;;;;3.65;2.00;;;15.70;78.00;;;;;;6182292;23;20092;-71
2023/05/19 07:29:56;;;;;;;4.22;2.20;;;15.70;78.10;;;;;;6181539;23;20033;-71
2023/05/19 07:32:21;;;;;;;6.97;2.88;;;15.80;77.90;;;;;;6182111;23;20013;-70
2023/05/19 07:34:47;;;;;;;6.13;2.55;;;16.00;77.90;;;;;;6155157;23;20005;-61
2023/05/19 07:37:12;;;;;;;8.07;2.40;;;16.20;77.80;;;;;;6180341;23;20335;-61
2023/05/19 07:39:38;;;;;;;5.90;2.30;;;16.30;77.60;;;;;;6180498;23;20005;-61
2023/05/19 07:42:04;;;;;;;4.28;2.20;;;16.50;77.40;;;;;;6180600;23;20375;-62
2023/05/19 07:44:30;;;;;;;5.80;2.55;;;16.60;77.10;;;;;;6180591;23;20017;-66
2023/05/19 07:46:56;;;;;;;5.15;2.30;;;16.70;76.60;;;;;;6181361;23;20048;-63
2023/05/19 07:49:21;;;;;;;4.90;2.35;;;16.70;76.50;;;;;;6179739;23;20542;-63
2023/05/19 07:51:47;;;;;;;6.68;2.58;;;16.80;76.50;;;;;;6181428;23;20055;-63
2023/05/19 07:54:13;;;;;;;4.00;2.33;;;16.90;75.60;;;;;;6181684;23;20001;-63
2023/05/19 07:56:38;;;;;;;5.15;2.50;;;16.90;75.40;;;;;;6181208;23;20455;-63
2023/05/19 07:59:04;;;;;;;3.00;2.20;;;17.00;75.40;;;;;;6181621;23;20274;-63
2023/05/19 08:01:31;;;;;;;3.83;2.17;;;17.10;75.60;;;;;;6179311;23;20017;-62
2023/05/19 08:03:57;;;;;;;4.03;2.38;;;17.30;76.10;;;;;;6181873;23;20065;-63
2023/05/19 08:06:24;;;;;;;5.38;2.15;;;17.40;75.40;;;;;;6154854;23;20176;-62
2023/05/19 08:08:50;;;;;;;3.53;1.90;;;17.40;74.60;;;;;;6179896;23;20008;-63
2023/05/19 08:11:15;;;;;;;4.72;2.58;;;17.40;74.30;;;;;;6153432;23;20359;-64
2023/05/19 08:13:41;;;;;;;3.67;2.50;;;17.50;74.00;;;;;;6180973;23;20005;-64
2023/05/19 08:16:07;;;;;;;5.43;2.28;;;17.50;73.80;;;;;;6181613;23;20366;-65
2023/05/19 08:18:32;;;;;;;3.95;2.10;;;17.50;73.70;;;;;;6154016;23;20021;-62
2023/05/19 08:20:58;;;;;;;6.70;3.03;;;17.60;73.70;;;;;;6179712;23;20446;-63
2023/05/19 08:23:23;;;;;;;4.20;2.30;;;17.60;73.50;;;;;;6179208;23;20027;-63
2023/05/19 08:25:50;;;;;;;5.72;2.75;;;17.60;73.70;;;;;;6154528;23;20016;-63
2023/05/19 08:28:15;;;;;;;2.83;2.00;;;17.70;73.40;;;;;;6181041;23;20005;-63
2023/05/19 08:30:41;;;;;;;3.40;2.20;;;17.80;73.30;;;;;;6180577;23;20099;-63
2023/05/19 08:33:07;;;;;;;3.63;1.90;;;17.80;73.20;;;;;;6181311;23;20334;-63
2023/05/19 08:35:32;;;;;;;5.97;2.28;;;17.80;73.10;;;;;;6180867;23;20497;-62
2023/05/19 08:37:58;;;;;;;4.45;2.67;;;17.90;73.10;;;;;;6180355;23;20169;-62
2023/05/19 08:40:26;;;;;;;3.15;1.83;;;17.90;71.80;;;;;;6181076;23;20012;-63
2023/05/19 08:42:52;;;;;;;5.15;1.90;;;17.90;72.20;;;;;;6179742;23;20025;-63
2023/05/19 08:45:18;;;;;;;2.78;1.52;;;18.00;72.00;;;;;;6180006;23;20017;-62
2023/05/19 08:47:46;;;;;;;4.72;2.00;;;18.10;71.70;;;;;;6181918;23;20020;-69
2023/05/19 08:50:20;;;;;;;3.38;1.92;;;18.10;71.30;;;;;;6180474;23;20027;-70
2023/05/19 08:52:45;;;;;;;6.35;2.90;;;18.10;70.90;;;;;;6182017;23;20037;-69
2023/05/19 08:55:24;;;;;;;2.90;1.70;;;18.20;71.50;;;;;;6180012;23;20004;-69
2023/05/19 08:57:51;;;;;;;3.75;1.80;;;18.30;71.10;;;;;;6180186;23;20381;-69
2023/05/19 09:00:18;;;;;;;5.30;2.15;;;18.50;71.50;;;;;;6181270;23;20071;-69
2023/05/19 09:02:47;;;;;;;4.13;1.85;;;18.60;71.30;;;;;;6181416;23;20021;-68
2023/05/19 09:05:15;;;;;;;4.15;2.30;;;18.70;70.60;;;;;;6180841;23;20522;-69
2023/05/19 09:07:42;;;;;;;4.53;1.73;;;18.70;70.60;;;;;;6181699;23;20012;-69
2023/05/19 09:10:12;;;;;;;4.40;1.50;;;18.80;69.40;;;;;;6180719;23;20407;-68
2023/05/19 09:12:38;;;;;;;2.88;1.50;;;18.80;69.20;;;;;;6181366;23;20419;-69
2023/05/19 09:15:06;;;;;;;1.92;1.42;;;18.90;68.90;;;;;;6181017;23;20043;-69
2023/05/19 09:17:33;;;;;;;3.55;1.67;;;18.90;67.70;;;;;;6180074;23;20009;-69
2023/05/19 09:20:03;;;;;;;5.47;2.08;;;18.90;66.80;;;;;;6180930;23;20005;-69
2023/05/19 09:22:29;;;;;;;1.50;1.08;;;19.00;66.10;;;;;;6180563;23;20104;-69
2023/05/19 09:24:55;;;;;;;5.93;1.67;;;19.00;66.30;;;;;;6181145;23;20009;-69
2023/05/19 09:27:24;;;;;;;3.55;1.30;;;19.00;66.10;;;;;;6153302;23;20009;-68
2023/05/19 09:29:50;;;;;;;2.08;1.38;;;19.00;66.60;;;;;;6153919;23;20005;-62
2023/05/19 09:32:25;;;;;;;3.17;1.38;;;19.00;66.40;;;;;;6154402;23;20008;-62
2023/05/19 09:34:52;;;;;;;2.90;1.35;;;19.10;66.40;;;;;;6180957;23;20272;-62
2023/05/19 09:37:22;;;;;;;3.30;1.38;;;19.20;66.20;;;;;;6181195;23;20005;-63
2023/05/19 09:39:50;;;;;;;4.05;1.10;;;19.30;66.30;;;;;;6180262;23;20113;-63
2023/05/19 09:42:24;;;;;;;3.90;1.40;;;19.40;65.50;;;;;;6180382;23;20021;-63
2023/05/19 09:44:57;;;;;;;2.83;1.20;;;19.50;65.30;;;;;;6155351;23;20017;-63
2023/05/19 09:47:23;;;;;;;3.08;1.20;;;19.50;64.60;;;;;;6180223;23;20013;-63
2023/05/19 09:49:50;;;;;;;2.20;1.63;;;19.50;64.10;;;;;;6178239;23;20316;-63
2023/05/19 09:52:17;;;;;;;2.22;1.38;;;19.40;63.10;;;;;;6180332;23;20009;-63
2023/05/19 09:54:44;;;;;;;1.25;0.90;;;19.30;63.20;;;;;;6181268;23;20060;-63
2023/05/19 09:57:09;;;;;;;1.77;1.30;;;19.20;63.10;;;;;;6180493;23;20005;-69
2023/05/19 09:59:37;;;;;;;2.50;1.13;;;19.20;63.30;;;;;;6180644;23;20453;-69
2023/05/19 10:02:04;;;;;;;3.25;1.20;;;19.20;63.20;;;;;;6179382;23;20013;-70
2023/05/19 10:04:30;;;;;;;7.18;1.30;;;19.30;63.40;;;;;;6180563;23;20013;-69
2023/05/19 10:06:58;;;;;;;1.90;1.23;;;19.40;63.60;;;;;;6181677;23;20009;-69
2023/05/19 10:09:28;;;;;;;2.13;1.38;;;19.60;63.50;;;;;;6181056;23;20087;-69
2023/05/19 10:11:56;;;;;;;1.85;1.00;;;19.60;62.80;;;;;;6179608;23;20012;-69
2023/05/19 10:14:26;;;;;;;4.18;1.30;;;19.70;62.90;;;;;;6182796;23;20036;-68
2023/05/19 10:16:58;;;;;;;2.00;1.13;;;19.70;62.20;;;;;;6180530;23;20036;-68
2023/05/19 10:19:25;;;;;;;3.78;1.25;;;19.70;62.30;;;;;;6154308;23;20358;-69
2023/05/19 10:21:52;;;;;;;3.25;1.40;;;19.80;62.30;;;;;;6179458;23;20067;-68
2023/05/19 10:24:18;;;;;;;1.85;1.15;;;19.80;61.70;;;;;;6180785;23;20490;-69
2023/05/19 10:26:49;;;;;;;2.28;1.05;;;19.90;62.00;;;;;;6179725;23;20005;-68
2023/05/19 10:29:25;;;;;;;3.25;1.83;;;19.90;61.70;;;;;;6180983;23;20013;-69
2023/05/19 10:31:52;;;;;;;2.40;1.38;;;20.00;61.20;;;;;;6179965;23;20167;-69
2023/05/19 10:34:52;;;;;;;2.30;1.02;;;20.00;61.00;;;;;;6180553;23;20005;-69
2023/05/19 10:37:56;;;;;;;2.55;1.40;;;20.00;60.00;;;;;;6155005;23;20012;-70
2023/05/19 10:40:32;;;;;;;2.80;0.95;;;20.00;60.30;;;;;;6181006;23;20092;-69
2023/05/19 10:43:19;;;;;;;2.45;1.20;;;20.00;60.30;;;;;;6180580;23;20021;-62
2023/05/19 10:45:48;;;;;;;3.38;1.40;;;20.10;60.00;;;;;;6180735;23;20043;-63
2023/05/19 10:48:19;;;;;;;7.95;1.75;;;20.20;60.60;;;;;;6181873;23;20003;-63
2023/05/19 10:50:45;;;;;;;2.53;1.55;;;20.20;59.90;;;;;;6182680;23;20009;-63
2023/05/19 10:53:20;;;;;;;4.57;1.10;;;20.30;59.70;;;;;;6182060;23;20032;-68
2023/05/19 10:55:54;;;;;;;2.47;1.25;;;20.20;59.50;;;;;;6182317;23;20016;-68
2023/05/19 10:58:51;;;;;;;2.25;1.20;;;20.20;59.90;;;;;;6182758;23;20005;-69
2023/05/19 11:01:18;;;;;;;2.65;1.25;;;20.30;60.60;;;;;;6150311;23;20081;-68
2023/05/19 11:03:52;;;;;;;2.50;1.13;;;20.30;60.30;;;;;;6180804;23;20528;-70
2023/05/19 11:06:20;;;;;;;4.75;1.33;;;20.30;59.80;;;;;;6181041;23;20307;-69
2023/05/19 11:08:51;;;;;;;1.88;1.20;;;20.40;60.20;;;;;;6182077;23;20523;-68
2023/05/19 11:11:17;;;;;;;3.08;1.40;;;20.50;60.00;;;;;;6180325;23;20039;-69
2023/05/19 11:13:47;;;;;;;1.98;1.10;;;20.50;59.40;;;;;;6152213;23;20005;-68
2023/05/19 11:16:13;;;;;;;1.80;1.00;;;20.50;58.70;;;;;;6182001;23;20009;-69
2023/05/19 11:18:39;;;;;;;2.60;1.38;;;20.60;59.10;;;;;;6155782;23;20386;-69
2023/05/19 11:21:04;;;;;;;1.63;1.02;;;20.80;59.50;;;;;;6181272;23;20035;-69
2023/05/19 11:23:33;;;;;;;2.63;1.23;;;20.90;58.60;;;;;;6181919;23;20029;-68
2023/05/19 11:26:01;;;;;;;2.30;1.20;;;21.00;58.40;;;;;;6181740;23;20001;-70
2023/05/19 11:28:28;;;;;;;3.20;1.30;;;21.10;58.20;;;;;;6181539;23;20009;-69
2023/05/19 11:30:56;;;;;;;2.72;1.40;;;21.10;58.00;;;;;;6182449;23;20006;-68
2023/05/19 11:33:25;;;;;;;1.45;1.00;;;21.30;58.30;;;;;;6182112;23;20048;-70
2023/05/19 11:35:53;;;;;;;2.00;1.30;;;21.30;58.10;;;;;;6154813;23;20438;-70
2023/05/19 11:38:19;;;;;;;4.45;1.48;;;21.30;57.90;;;;;;6182067;23;20013;-70
2023/05/19 11:40:48;;;;;;;3.47;1.25;;;21.30;57.20;;;;;;6181266;23;20006;-70
2023/05/19 11:43:15;;;;;;;2.17;1.20;;;21.30;57.30;;;;;;6180787;23;20092;-69
2023/05/19 11:45:41;;;;;;;1.95;1.10;;;21.20;57.10;;;;;;6181509;23;20009;-68
2023/05/19 11:48:14;;;;;;;5.35;1.63;;;21.10;56.90;;;;;;6181635;23;20016;-68
2023/05/19 11:50:42;;;;;;;2.38;1.33;;;21.10;56.80;;;;;;6181036;23;20008;-68
2023/05/19 11:53:12;;;;;;;2.00;1.33;;;21.00;56.70;;;;;;6180987;23;20013;-69
2023/05/19 11:55:44;;;;;;;2.75;1.35;;;20.90;56.90;;;;;;6182157;23;20032;-69
2023/05/19 11:58:10;;;;;;;2.17;1.13;;;20.90;56.60;;;;;;6180620;23;20009;-69
2023/05/19 12:00:39;;;;;;;3.03;1.58;;;20.90;56.80;;;;;;6181527;23;20008;-69
2023/05/19 12:03:05;;;;;;;2.40;1.20;;;21.00;57.20;;;;;;6181745;23;20124;-69
2023/05/19 12:05:31;;;;;;;4.10;1.40;;;21.10;57.20;;;;;;6181763;23;20101;-69
2023/05/19 12:07:59;;;;;;;3.13;1.77;;;21.10;58.00;;;;;;6181498;23;20084;-69
2023/05/19 12:10:29;;;;;;;2.58;1.17;;;21.20;56.90;;;;;;6181529;23;20343;-69
2023/05/19 12:12:59;;;;;;;2.25;1.38;;;21.20;56.70;;;;;;6181752;23;20390;-69
2023/05/19 12:15:25;;;;;;;3.97;1.00;;;21.20;56.40;;;;;;6180885;23;20455;-69
2023/05/19 12:17:56;;;;;;;3.45;1.40;;;21.20;56.60;;;;;;6180492;23;20013;-69
2023/05/19 12:20:22;;;;;;;1.83;1.20;;;21.20;56.00;;;;;;6181759;23;20009;-69
2023/05/19 12:22:49;;;;;;;1.90;1.17;;;21.30;56.70;;;;;;6181981;23;20451;-69
2023/05/19 12:25:15;;;;;;;4.15;1.80;;;21.40;56.70;;;;;;6181590;23;20071;-71
2023/05/19 12:27:42;;;;;;;1.98;1.33;;;21.50;56.80;;;;;;6182057;23;20741;-69
2023/05/19 12:30:09;;;;;;;1.88;1.10;;;21.70;56.30;;;;;;6181415;23;20426;-70
2023/05/19 12:32:35;;;;;;;2.42;1.30;;;21.70;56.40;;;;;;6180757;23;20036;-71
2023/05/19 12:35:05;;;;;;;2.25;1.48;;;21.70;56.10;;;;;;6181479;23;20009;-71
2023/05/19 12:37:34;;;;;;;2.05;1.52;;;21.70;56.40;;;;;;6181364;23;20044;-70
2023/05/19 12:40:02;;;;;;;4.00;1.38;;;21.70;56.00;;;;;;6154839;23;20058;-69
2023/05/19 12:42:33;;;;;;;2.05;1.20;;;21.70;55.50;;;;;;6181531;23;20312;-71
2023/05/19 12:45:01;;;;;;;3.17;1.88;;;21.70;56.00;;;;;;6180671;23;20320;-71
2023/05/19 12:47:34;;;;;;;2.97;1.40;;;21.70;56.10;;;;;;6182105;23;20013;-68
2023/05/19 12:50:09;;;;;;;2.15;1.10;;;21.70;55.60;;;;;;6181313;23;20056;-69
2023/05/19 12:52:44;;;;;;;2.03;1.30;;;21.70;55.90;;;;;;6181938;23;20040;-71